sensor_id;sensor_type;location;lat;lon;timestamp;temperature;humidity
55369;DHT22;41247;49.736;8.752;2023-07-13T00:03:17;18.40;99.90
55369;DHT22;41247;49.736;8.752;2023-07-13T00:06:57;18.40;99.90
55369;DHT22;41247;49.736;8.752;2023-07-13T00:10:41;18.40;99.90
55369;DHT22;41247;49.736;8.752;2023-07-13T00:14:23;18.30;99.90
55369;DHT22;41247;49.736;8.752;2023-07-13T00:18:05;18.30;99.90
55369;DHT22;41247;49.736;8.752;2023-07-13T00:21:46;18.20;99.90
55369;DHT22;41247;49.736;8.752;2023-07-13T00:25:26;18.10;99.90
55369;DHT22;41247;49.736;8.752;2023-07-13T00:29:07;18.00;99.90
55369;DHT22;41247;49.736;8.752;2023-07-13T00:32:48;18.00;99.90
55369;DHT22;41247;49.736;8.752;2023-07-13T00:36:30;17.90;99.90
55369;DHT22;41247;49.736;8.752;2023-07-13T00:40:12;17.80;99.90
55369;DHT22;41247;49.736;8.752;2023-07-13T00:43:53;17.80;99.90
55369;DHT22;41247;49.736;8.752;2023-07-13T00:47:34;17.80;99.90
55369;DHT22;41247;49.736;8.752;2023-07-13T00:51:18;17.70;99.90
55369;DHT22;41247;49.736;8.752;2023-07-13T00:55:01;17.60;99.90
55369;DHT22;41247;49.736;8.752;2023-07-13T00:58:42;17.40;99.90
55369;DHT22;41247;49.736;8.752;2023-07-13T01:02:24;17.30;99.90
55369;DHT22;41247;49.736;8.752;2023-07-13T01:06:05;17.20;99.90
55369;DHT22;41247;49.736;8.752;2023-07-13T01:09:46;17.10;99.90
55369;DHT22;41247;49.736;8.752;2023-07-13T01:13:27;17.00;99.90
55369;DHT22;41247;49.736;8.752;2023-07-13T01:17:11;16.90;99.90
55369;DHT22;41247;49.736;8.752;2023-07-13T01:20:57;16.90;99.90
55369;DHT22;41247;49.736;8.752;2023-07-13T01:24:45;16.70;99.90
55369;DHT22;41247;49.736;8.752;2023-07-13T01:28:27;16.60;99.90
55369;DHT22;41247;49.736;8.752;2023-07-13T01:32:11;16.40;99.90
55369;DHT22;41247;49.736;8.752;2023-07-13T01:35:53;16.30;99.90
55369;DHT22;41247;49.736;8.752;2023-07-13T01:39:34;16.10;99.90
55369;DHT22;41247;49.736;8.752;2023-07-13T01:43:14;16.00;99.90
55369;DHT22;41247;49.736;8.752;2023-07-13T01:46:55;15.90;99.90
55369;DHT22;41247;49.736;8.752;2023-07-13T01:50:36;15.70;99.90
55369;DHT22;41247;49.736;8.752;2023-07-13T01:54:17;15.70;99.90
55369;DHT22;41247;49.736;8.752;2023-07-13T01:57:57;15.50;99.90
55369;DHT22;41247;49.736;8.752;2023-07-13T02:01:38;15.40;99.90
55369;DHT22;41247;49.736;8.752;2023-07-13T02:05:19;15.30;99.90
55369;DHT22;41247;49.736;8.752;2023-07-13T02:08:59;15.10;99.90
55369;DHT22;41247;49.736;8.752;2023-07-13T02:12:41;15.00;99.90
55369;DHT22;41247;49.736;8.752;2023-07-13T02:16:22;14.90;99.90
55369;DHT22;41247;49.736;8.752;2023-07-13T02:20:03;14.80;99.90
55369;DHT22;41247;49.736;8.752;2023-07-13T02:23:46;14.70;99.90
55369;DHT22;41247;49.736;8.752;2023-07-13T02:27:27;14.60;99.90
55369;DHT22;41247;49.736;8.752;2023-07-13T02:31:11;14.60;99.90
55369;DHT22;41247;49.736;8.752;2023-07-13T02:34:53;14.50;99.90
55369;DHT22;41247;49.736;8.752;2023-07-13T02:38:34;14.50;99.90
55369;DHT22;41247;49.736;8.752;2023-07-13T02:42:15;14.40;99.90
55369;DHT22;41247;49.736;8.752;2023-07-13T02:45:56;14.30;99.90
55369;DHT22;41247;49.736;8.752;2023-07-13T02:49:37;14.20;99.90
55369;DHT22;41247;49.736;8.752;2023-07-13T02:53:17;14.10;99.90
55369;DHT22;41247;49.736;8.752;2023-07-13T02:56:58;14.10;99.90
55369;DHT22;41247;49.736;8.752;2023-07-13T03:00:39;14.00;99.90
55369;DHT22;41247;49.736;8.752;2023-07-13T03:04:19;13.90;99.90
55369;DHT22;41247;49.736;8.752;2023-07-13T03:08:00;13.80;99.90
55369;DHT22;41247;49.736;8.752;2023-07-13T03:11:40;13.80;99.90
55369;DHT22;41247;49.736;8.752;2023-07-13T03:15:21;13.70;99.90
55369;DHT22;41247;49.736;8.752;2023-07-13T03:19:02;13.70;99.90
55369;DHT22;41247;49.736;8.752;2023-07-13T03:22:42;13.60;99.90
55369;DHT22;41247;49.736;8.752;2023-07-13T03:26:24;13.60;99.90
55369;DHT22;41247;49.736;8.752;2023-07-13T03:30:05;13.50;99.90
55369;DHT22;41247;49.736;8.752;2023-07-13T03:33:47;13.50;99.90
55369;DHT22;41247;49.736;8.752;2023-07-13T03:37:27;13.50;99.90
55369;DHT22;41247;49.736;8.752;2023-07-13T03:41:08;13.50;99.90
55369;DHT22;41247;49.736;8.752;2023-07-13T03:44:49;13.40;99.90
55369;DHT22;41247;49.736;8.752;2023-07-13T03:48:29;13.40;99.90
55369;DHT22;41247;49.736;8.752;2023-07-13T03:52:10;13.40;99.90
55369;DHT22;41247;49.736;8.752;2023-07-13T03:55:50;13.30;99.90
55369;DHT22;41247;49.736;8.752;2023-07-13T03:59:31;13.30;99.90
55369;DHT22;41247;49.736;8.752;2023-07-13T04:03:11;13.30;99.90
55369;DHT22;41247;49.736;8.752;2023-07-13T04:06:52;13.30;99.90
55369;DHT22;41247;49.736;8.752;2023-07-13T04:10:33;13.30;99.90
55369;DHT22;41247;49.736;8.752;2023-07-13T04:14:13;13.30;99.90
55369;DHT22;41247;49.736;8.752;2023-07-13T04:17:54;13.30;99.90
55369;DHT22;41247;49.736;8.752;2023-07-13T04:21:34;13.30;99.90
55369;DHT22;41247;49.736;8.752;2023-07-13T04:25:15;13.30;99.90
55369;DHT22;41247;49.736;8.752;2023-07-13T04:28:57;13.30;99.90
55369;DHT22;41247;49.736;8.752;2023-07-13T04:32:38;13.30;99.90
55369;DHT22;41247;49.736;8.752;2023-07-13T04:36:19;13.40;99.90
55369;DHT22;41247;49.736;8.752;2023-07-13T04:39:59;13.40;99.90
55369;DHT22;41247;49.736;8.752;2023-07-13T04:43:40;13.40;99.90
55369;DHT22;41247;49.736;8.752;2023-07-13T04:47:20;13.40;99.90
55369;DHT22;41247;49.736;8.752;2023-07-13T04:51:01;13.50;99.90
55369;DHT22;41247;49.736;8.752;2023-07-13T04:54:42;13.60;99.90
55369;DHT22;41247;49.736;8.752;2023-07-13T04:58:24;13.60;99.90
55369;DHT22;41247;49.736;8.752;2023-07-13T05:02:05;13.60;99.90
55369;DHT22;41247;49.736;8.752;2023-07-13T05:05:58;13.60;99.90
55369;DHT22;41247;49.736;8.752;2023-07-13T05:09:48;13.70;99.90
55369;DHT22;41247;49.736;8.752;2023-07-13T05:13:31;13.70;99.90
55369;DHT22;41247;49.736;8.752;2023-07-13T05:17:12;13.80;99.90
55369;DHT22;41247;49.736;8.752;2023-07-13T05:21:04;13.90;99.90
55369;DHT22;41247;49.736;8.752;2023-07-13T05:24:46;14.00;99.90
55369;DHT22;41247;49.736;8.752;2023-07-13T05:28:28;14.10;99.90
55369;DHT22;41247;49.736;8.752;2023-07-13T05:32:11;14.20;99.90
55369;DHT22;41247;49.736;8.752;2023-07-13T05:35:52;14.20;99.90
55369;DHT22;41247;49.736;8.752;2023-07-13T05:39:32;14.40;99.90
55369;DHT22;41247;49.736;8.752;2023-07-13T05:43:13;14.40;99.90
55369;DHT22;41247;49.736;8.752;2023-07-13T05:46:54;14.60;99.90
55369;DHT22;41247;49.736;8.752;2023-07-13T05:50:35;14.70;99.90
55369;DHT22;41247;49.736;8.752;2023-07-13T05:54:15;14.80;99.90
55369;DHT22;41247;49.736;8.752;2023-07-13T05:57:56;14.90;99.90
55369;DHT22;41247;49.736;8.752;2023-07-13T06:01:41;15.00;99.90
55369;DHT22;41247;49.736;8.752;2023-07-13T06:05:22;15.00;99.90
55369;DHT22;41247;49.736;8.752;2023-07-13T06:09:02;15.00;99.90
55369;DHT22;41247;49.736;8.752;2023-07-13T06:12:43;15.10;99.90
55369;DHT22;41247;49.736;8.752;2023-07-13T06:16:26;15.40;99.90
55369;DHT22;41247;49.736;8.752;2023-07-13T06:20:07;15.60;99.90
55369;DHT22;41247;49.736;8.752;2023-07-13T06:23:49;15.80;99.90
55369;DHT22;41247;49.736;8.752;2023-07-13T06:27:35;16.10;99.90
55369;DHT22;41247;49.736;8.752;2023-07-13T06:31:19;16.50;99.90
55369;DHT22;41247;49.736;8.752;2023-07-13T06:34:59;16.80;99.90
55369;DHT22;41247;49.736;8.752;2023-07-13T06:38:48;17.10;99.90
55369;DHT22;41247;49.736;8.752;2023-07-13T06:42:29;17.30;99.90
55369;DHT22;41247;49.736;8.752;2023-07-13T06:46:10;17.60;99.90
55369;DHT22;41247;49.736;8.752;2023-07-13T06:49:50;17.80;99.90
55369;DHT22;41247;49.736;8.752;2023-07-13T06:53:31;18.20;99.90
55369;DHT22;41247;49.736;8.752;2023-07-13T06:57:13;18.40;99.90
55369;DHT22;41247;49.736;8.752;2023-07-13T07:00:54;18.60;99.90
55369;DHT22;41247;49.736;8.752;2023-07-13T07:04:35;18.80;99.90
55369;DHT22;41247;49.736;8.752;2023-07-13T07:08:15;19.00;99.90
55369;DHT22;41247;49.736;8.752;2023-07-13T07:11:56;19.20;99.90
55369;DHT22;41247;49.736;8.752;2023-07-13T07:15:36;19.30;99.90
55369;DHT22;41247;49.736;8.752;2023-07-13T07:19:17;19.50;99.90
55369;DHT22;41247;49.736;8.752;2023-07-13T07:22:58;19.70;99.90
55369;DHT22;41247;49.736;8.752;2023-07-13T07:26:38;19.90;99.90
55369;DHT22;41247;49.736;8.752;2023-07-13T07:30:19;20.00;99.90
55369;DHT22;41247;49.736;8.752;2023-07-13T07:34:00;20.10;99.90
55369;DHT22;41247;49.736;8.752;2023-07-13T07:37:40;20.30;99.90
55369;DHT22;41247;49.736;8.752;2023-07-13T07:41:21;20.40;99.90
55369;DHT22;41247;49.736;8.752;2023-07-13T07:45:01;20.50;99.90
55369;DHT22;41247;49.736;8.752;2023-07-13T07:48:42;20.60;99.90
55369;DHT22;41247;49.736;8.752;2023-07-13T07:52:23;20.80;99.90
55369;DHT22;41247;49.736;8.752;2023-07-13T07:56:03;21.00;99.90
55369;DHT22;41247;49.736;8.752;2023-07-13T07:59:44;21.00;99.90
55369;DHT22;41247;49.736;8.752;2023-07-13T08:03:25;21.30;99.90
55369;DHT22;41247;49.736;8.752;2023-07-13T08:07:05;21.20;99.90
55369;DHT22;41247;49.736;8.752;2023-07-13T08:10:46;21.10;99.90
55369;DHT22;41247;49.736;8.752;2023-07-13T08:14:27;21.40;99.90
55369;DHT22;41247;49.736;8.752;2023-07-13T08:18:07;21.60;99.90
55369;DHT22;41247;49.736;8.752;2023-07-13T08:21:48;21.30;99.90
55369;DHT22;41247;49.736;8.752;2023-07-13T08:25:28;20.90;99.90
55369;DHT22;41247;49.736;8.752;2023-07-13T08:29:09;20.90;99.90
55369;DHT22;41247;49.736;8.752;2023-07-13T08:32:49;21.20;99.90
55369;DHT22;41247;49.736;8.752;2023-07-13T08:36:30;21.50;99.90
55369;DHT22;41247;49.736;8.752;2023-07-13T08:40:11;21.70;99.90
55369;DHT22;41247;49.736;8.752;2023-07-13T08:43:56;21.80;99.90
55369;DHT22;41247;49.736;8.752;2023-07-13T08:47:42;21.90;99.90
55369;DHT22;41247;49.736;8.752;2023-07-13T08:51:40;22.00;99.90
55369;DHT22;41247;49.736;8.752;2023-07-13T08:55:28;22.00;99.90
55369;DHT22;41247;49.736;8.752;2023-07-13T08:59:14;22.10;99.90
55369;DHT22;41247;49.736;8.752;2023-07-13T09:02:57;22.00;99.90
55369;DHT22;41247;49.736;8.752;2023-07-13T09:07:05;22.20;99.90
55369;DHT22;41247;49.736;8.752;2023-07-13T09:10:59;22.50;99.90
55369;DHT22;41247;49.736;8.752;2023-07-13T09:14:47;22.90;99.90
55369;DHT22;41247;49.736;8.752;2023-07-13T09:18:36;22.90;99.90
55369;DHT22;41247;49.736;8.752;2023-07-13T09:22:20;23.10;99.90
55369;DHT22;41247;49.736;8.752;2023-07-13T09:26:13;23.40;99.90
55369;DHT22;41247;49.736;8.752;2023-07-13T09:34:12;23.40;99.90
55369;DHT22;41247;49.736;8.752;2023-07-13T09:37:59;23.50;99.90
55369;DHT22;41247;49.736;8.752;2023-07-13T09:45:48;23.50;99.90
55369;DHT22;41247;49.736;8.752;2023-07-13T09:49:33;23.00;99.90
55369;DHT22;41247;49.736;8.752;2023-07-13T09:53:17;22.90;99.90
55369;DHT22;41247;49.736;8.752;2023-07-13T09:56:59;22.90;99.90
55369;DHT22;41247;49.736;8.752;2023-07-13T10:00:43;23.00;99.90
55369;DHT22;41247;49.736;8.752;2023-07-13T10:04:32;23.00;99.90
55369;DHT22;41247;49.736;8.752;2023-07-13T10:08:28;23.10;99.90
55369;DHT22;41247;49.736;8.752;2023-07-13T10:12:16;23.20;99.90
55369;DHT22;41247;49.736;8.752;2023-07-13T10:15:57;23.70;99.90
55369;DHT22;41247;49.736;8.752;2023-07-13T10:19:41;23.80;99.90
55369;DHT22;41247;49.736;8.752;2023-07-13T10:23:25;23.80;99.90
55369;DHT22;41247;49.736;8.752;2023-07-13T10:27:32;23.80;99.90
55369;DHT22;41247;49.736;8.752;2023-07-13T10:31:16;24.30;99.90
55369;DHT22;41247;49.736;8.752;2023-07-13T10:34:56;24.90;99.90
55369;DHT22;41247;49.736;8.752;2023-07-13T10:38:37;25.40;99.90
55369;DHT22;41247;49.736;8.752;2023-07-13T10:42:32;24.90;99.90
55369;DHT22;41247;49.736;8.752;2023-07-13T10:46:17;24.50;99.90
55369;DHT22;41247;49.736;8.752;2023-07-13T10:50:00;24.30;99.90
55369;DHT22;41247;49.736;8.752;2023-07-13T10:53:41;24.20;99.90
55369;DHT22;41247;49.736;8.752;2023-07-13T10:57:22;24.00;99.90
55369;DHT22;41247;49.736;8.752;2023-07-13T11:04:47;23.70;99.90
55369;DHT22;41247;49.736;8.752;2023-07-13T11:08:32;23.80;99.90
55369;DHT22;41247;49.736;8.752;2023-07-13T11:15:55;24.10;99.90
55369;DHT22;41247;49.736;8.752;2023-07-13T11:19:40;24.20;99.90
55369;DHT22;41247;49.736;8.752;2023-07-13T11:23:28;24.20;99.90
55369;DHT22;41247;49.736;8.752;2023-07-13T11:31:15;23.70;99.90
55369;DHT22;41247;49.736;8.752;2023-07-13T11:34:56;23.40;99.90
55369;DHT22;41247;49.736;8.752;2023-07-13T11:38:42;23.30;99.90
55369;DHT22;41247;49.736;8.752;2023-07-13T11:42:24;23.10;99.90
55369;DHT22;41247;49.736;8.752;2023-07-13T11:46:15;23.20;99.90
55369;DHT22;41247;49.736;8.752;2023-07-13T11:50:03;23.30;99.90
55369;DHT22;41247;49.736;8.752;2023-07-13T11:53:46;23.40;99.90
55369;DHT22;41247;49.736;8.752;2023-07-13T11:57:32;23.60;99.90
55369;DHT22;41247;49.736;8.752;2023-07-13T12:01:23;23.80;99.90
55369;DHT22;41247;49.736;8.752;2023-07-13T12:05:12;23.50;99.90
55369;DHT22;41247;49.736;8.752;2023-07-13T12:09:01;23.20;99.90
55369;DHT22;41247;49.736;8.752;2023-07-13T12:13:09;23.10;99.90
55369;DHT22;41247;49.736;8.752;2023-07-13T12:16:50;23.30;99.90
55369;DHT22;41247;49.736;8.752;2023-07-13T12:20:37;23.50;99.90
55369;DHT22;41247;49.736;8.752;2023-07-13T12:24:20;23.60;99.90
55369;DHT22;41247;49.736;8.752;2023-07-13T12:28:28;23.80;99.90
55369;DHT22;41247;49.736;8.752;2023-07-13T12:32:17;24.70;99.90
55369;DHT22;41247;49.736;8.752;2023-07-13T12:36:01;25.70;99.90
55369;DHT22;41247;49.736;8.752;2023-07-13T12:39:48;25.50;99.90
55369;DHT22;41247;49.736;8.752;2023-07-13T12:43:34;25.00;99.90
55369;DHT22;41247;49.736;8.752;2023-07-13T12:47:16;24.60;99.90
55369;DHT22;41247;49.736;8.752;2023-07-13T12:51:01;24.20;99.90
55369;DHT22;41247;49.736;8.752;2023-07-13T12:54:41;24.10;99.90
55369;DHT22;41247;49.736;8.752;2023-07-13T12:58:32;24.50;99.90
55369;DHT22;41247;49.736;8.752;2023-07-13T13:06:18;24.80;99.90
55369;DHT22;41247;49.736;8.752;2023-07-13T13:10:00;24.80;99.90
55369;DHT22;41247;49.736;8.752;2023-07-13T13:13:43;24.80;99.90
55369;DHT22;41247;49.736;8.752;2023-07-13T13:17:29;24.60;99.90
55369;DHT22;41247;49.736;8.752;2023-07-13T13:21:11;24.30;99.90
55369;DHT22;41247;49.736;8.752;2023-07-13T13:24:52;24.00;99.90
55369;DHT22;41247;49.736;8.752;2023-07-13T13:28:32;24.00;99.90
55369;DHT22;41247;49.736;8.752;2023-07-13T13:32:16;23.90;99.90
55369;DHT22;41247;49.736;8.752;2023-07-13T13:35:56;24.00;99.90
55369;DHT22;41247;49.736;8.752;2023-07-13T13:39:38;24.00;99.90
55369;DHT22;41247;49.736;8.752;2023-07-13T13:43:25;24.00;99.90
55369;DHT22;41247;49.736;8.752;2023-07-13T13:51:18;24.40;99.90
55369;DHT22;41247;49.736;8.752;2023-07-13T13:55:00;24.40;99.90
55369;DHT22;41247;49.736;8.752;2023-07-13T13:58:41;24.00;99.90
55369;DHT22;41247;49.736;8.752;2023-07-13T14:02:24;23.80;99.90
55369;DHT22;41247;49.736;8.752;2023-07-13T14:06:11;23.70;99.90
55369;DHT22;41247;49.736;8.752;2023-07-13T14:09:55;23.70;99.90
55369;DHT22;41247;49.736;8.752;2023-07-13T14:13:41;23.60;99.90
55369;DHT22;41247;49.736;8.752;2023-07-13T14:17:25;23.60;99.90
55369;DHT22;41247;49.736;8.752;2023-07-13T14:21:19;23.70;99.90
55369;DHT22;41247;49.736;8.752;2023-07-13T14:25:01;24.00;99.90
55369;DHT22;41247;49.736;8.752;2023-07-13T14:28:45;24.20;99.90
55369;DHT22;41247;49.736;8.752;2023-07-13T14:32:28;24.30;99.90
55369;DHT22;41247;49.736;8.752;2023-07-13T14:36:32;24.70;99.90
55369;DHT22;41247;49.736;8.752;2023-07-13T14:40:18;25.40;99.90
55369;DHT22;41247;49.736;8.752;2023-07-13T14:44:14;25.70;99.90
55369;DHT22;41247;49.736;8.752;2023-07-13T14:47:56;25.30;99.90
55369;DHT22;41247;49.736;8.752;2023-07-13T14:51:37;25.00;99.90
55369;DHT22;41247;49.736;8.752;2023-07-13T14:55:18;24.70;99.90
55369;DHT22;41247;49.736;8.752;2023-07-13T14:58:59;24.50;99.90
55369;DHT22;41247;49.736;8.752;2023-07-13T15:02:40;24.50;99.90
55369;DHT22;41247;49.736;8.752;2023-07-13T15:06:22;24.80;99.90
55369;DHT22;41247;49.736;8.752;2023-07-13T15:10:13;25.10;99.90
55369;DHT22;41247;49.736;8.752;2023-07-13T15:13:53;25.40;99.90
55369;DHT22;41247;49.736;8.752;2023-07-13T15:17:38;25.70;99.90
55369;DHT22;41247;49.736;8.752;2023-07-13T15:21:22;25.10;99.90
55369;DHT22;41247;49.736;8.752;2023-07-13T15:25:04;24.60;99.90
55369;DHT22;41247;49.736;8.752;2023-07-13T15:28:52;24.20;99.90
55369;DHT22;41247;49.736;8.752;2023-07-13T15:32:33;24.10;99.90
55369;DHT22;41247;49.736;8.752;2023-07-13T15:36:15;24.00;99.90
55369;DHT22;41247;49.736;8.752;2023-07-13T15:39:59;24.00;99.90
55369;DHT22;41247;49.736;8.752;2023-07-13T15:43:40;24.00;99.90
55369;DHT22;41247;49.736;8.752;2023-07-13T15:47:20;24.00;99.90
55369;DHT22;41247;49.736;8.752;2023-07-13T15:51:08;24.40;99.90
55369;DHT22;41247;49.736;8.752;2023-07-13T15:54:52;24.90;99.90
55369;DHT22;41247;49.736;8.752;2023-07-13T15:58:33;25.10;99.90
55369;DHT22;41247;49.736;8.752;2023-07-13T16:02:17;24.90;99.90
55369;DHT22;41247;49.736;8.752;2023-07-13T16:05:59;24.70;99.90
55369;DHT22;41247;49.736;8.752;2023-07-13T16:09:40;24.80;99.90
55369;DHT22;41247;49.736;8.752;2023-07-13T16:13:21;25.30;99.90
55369;DHT22;41247;49.736;8.752;2023-07-13T16:17:02;25.50;99.90
55369;DHT22;41247;49.736;8.752;2023-07-13T16:20:45;25.20;99.90
55369;DHT22;41247;49.736;8.752;2023-07-13T16:24:26;25.10;99.90
55369;DHT22;41247;49.736;8.752;2023-07-13T16:28:12;24.90;99.90
55369;DHT22;41247;49.736;8.752;2023-07-13T16:32:04;24.70;99.90
55369;DHT22;41247;49.736;8.752;2023-07-13T16:35:46;24.60;99.90
55369;DHT22;41247;49.736;8.752;2023-07-13T16:39:27;24.40;99.90
55369;DHT22;41247;49.736;8.752;2023-07-13T16:43:14;24.50;99.90
55369;DHT22;41247;49.736;8.752;2023-07-13T16:46:55;24.80;99.90
55369;DHT22;41247;49.736;8.752;2023-07-13T16:50:38;24.70;99.90
55369;DHT22;41247;49.736;8.752;2023-07-13T16:54:22;24.40;99.90
55369;DHT22;41247;49.736;8.752;2023-07-13T16:58:02;24.30;99.90
55369;DHT22;41247;49.736;8.752;2023-07-13T17:01:44;24.30;99.90
55369;DHT22;41247;49.736;8.752;2023-07-13T17:05:25;24.10;99.90
55369;DHT22;41247;49.736;8.752;2023-07-13T17:09:07;23.90;99.90
55369;DHT22;41247;49.736;8.752;2023-07-13T17:12:50;23.80;99.90
55369;DHT22;41247;49.736;8.752;2023-07-13T17:16:32;23.50;99.90
55369;DHT22;41247;49.736;8.752;2023-07-13T17:20:20;23.30;99.90
55369;DHT22;41247;49.736;8.752;2023-07-13T17:24:04;23.10;99.90
55369;DHT22;41247;49.736;8.752;2023-07-13T17:27:51;23.00;99.90
55369;DHT22;41247;49.736;8.752;2023-07-13T17:31:31;22.80;99.90
55369;DHT22;41247;49.736;8.752;2023-07-13T17:39:14;22.70;99.90
55369;DHT22;41247;49.736;8.752;2023-07-13T17:42:59;22.70;99.90
55369;DHT22;41247;49.736;8.752;2023-07-13T17:46:40;22.50;99.90
55369;DHT22;41247;49.736;8.752;2023-07-13T17:50:32;22.40;99.90
55369;DHT22;41247;49.736;8.752;2023-07-13T17:54:15;22.20;99.90
55369;DHT22;41247;49.736;8.752;2023-07-13T17:57:57;22.10;99.90
55369;DHT22;41247;49.736;8.752;2023-07-13T18:01:38;22.00;99.90
55369;DHT22;41247;49.736;8.752;2023-07-13T18:05:19;22.00;99.90
55369;DHT22;41247;49.736;8.752;2023-07-13T18:09:00;21.90;99.90
55369;DHT22;41247;49.736;8.752;2023-07-13T18:12:42;21.70;99.90
55369;DHT22;41247;49.736;8.752;2023-07-13T18:16:28;21.60;99.90
55369;DHT22;41247;49.736;8.752;2023-07-13T18:20:15;21.40;99.90
55369;DHT22;41247;49.736;8.752;2023-07-13T18:23:55;21.40;99.90
55369;DHT22;41247;49.736;8.752;2023-07-13T18:27:36;21.30;99.90
55369;DHT22;41247;49.736;8.752;2023-07-13T18:31:19;21.20;99.90
55369;DHT22;41247;49.736;8.752;2023-07-13T18:35:00;21.10;99.90
55369;DHT22;41247;49.736;8.752;2023-07-13T18:38:42;20.80;99.90
55369;DHT22;41247;49.736;8.752;2023-07-13T18:42:23;20.50;99.90
55369;DHT22;41247;49.736;8.752;2023-07-13T18:46:12;20.30;99.90
55369;DHT22;41247;49.736;8.752;2023-07-13T18:50:18;20.00;99.90
55369;DHT22;41247;49.736;8.752;2023-07-13T18:54:02;19.90;99.90
55369;DHT22;41247;49.736;8.752;2023-07-13T18:57:43;19.60;99.90
55369;DHT22;41247;49.736;8.752;2023-07-13T19:01:30;19.40;99.90
55369;DHT22;41247;49.736;8.752;2023-07-13T19:05:16;19.20;99.90
55369;DHT22;41247;49.736;8.752;2023-07-13T19:08:58;18.90;99.90
55369;DHT22;41247;49.736;8.752;2023-07-13T19:12:38;18.70;99.90
55369;DHT22;41247;49.736;8.752;2023-07-13T19:16:19;18.50;99.90
55369;DHT22;41247;49.736;8.752;2023-07-13T19:19:59;18.30;99.90
55369;DHT22;41247;49.736;8.752;2023-07-13T19:23:43;18.10;99.90
55369;DHT22;41247;49.736;8.752;2023-07-13T19:27:25;17.90;99.90
55369;DHT22;41247;49.736;8.752;2023-07-13T19:31:24;17.80;99.90
55369;DHT22;41247;49.736;8.752;2023-07-13T19:35:07;17.60;99.90
55369;DHT22;41247;49.736;8.752;2023-07-13T19:38:49;17.50;99.90
55369;DHT22;41247;49.736;8.752;2023-07-13T19:42:30;17.30;99.90
55369;DHT22;41247;49.736;8.752;2023-07-13T19:46:30;17.10;99.90
55369;DHT22;41247;49.736;8.752;2023-07-13T19:50:13;17.00;99.90
55369;DHT22;41247;49.736;8.752;2023-07-13T19:53:59;16.90;99.90
55369;DHT22;41247;49.736;8.752;2023-07-13T19:57:46;16.80;99.90
55369;DHT22;41247;49.736;8.752;2023-07-13T20:01:26;16.70;99.90
55369;DHT22;41247;49.736;8.752;2023-07-13T20:05:07;16.60;99.90
55369;DHT22;41247;49.736;8.752;2023-07-13T20:08:48;16.50;99.90
55369;DHT22;41247;49.736;8.752;2023-07-13T20:12:28;16.40;99.90
55369;DHT22;41247;49.736;8.752;2023-07-13T20:16:13;16.30;99.90
55369;DHT22;41247;49.736;8.752;2023-07-13T20:19:55;16.30;99.90
55369;DHT22;41247;49.736;8.752;2023-07-13T20:23:35;16.20;99.90
55369;DHT22;41247;49.736;8.752;2023-07-13T20:27:16;16.20;99.90
55369;DHT22;41247;49.736;8.752;2023-07-13T20:30:57;16.00;99.90
55369;DHT22;41247;49.736;8.752;2023-07-13T20:34:38;16.00;99.90
55369;DHT22;41247;49.736;8.752;2023-07-13T20:38:19;15.90;99.90
55369;DHT22;41247;49.736;8.752;2023-07-13T20:42:00;15.90;99.90
55369;DHT22;41247;49.736;8.752;2023-07-13T20:45:41;15.80;99.90
55369;DHT22;41247;49.736;8.752;2023-07-13T20:49:22;15.80;99.90
55369;DHT22;41247;49.736;8.752;2023-07-13T20:53:02;15.70;99.90
55369;DHT22;41247;49.736;8.752;2023-07-13T20:56:43;15.60;99.90
55369;DHT22;41247;49.736;8.752;2023-07-13T21:00:26;15.60;99.90
55369;DHT22;41247;49.736;8.752;2023-07-13T21:04:13;15.50;99.90
55369;DHT22;41247;49.736;8.752;2023-07-13T21:07:54;15.40;99.90
55369;DHT22;41247;49.736;8.752;2023-07-13T21:11:35;15.40;99.90
55369;DHT22;41247;49.736;8.752;2023-07-13T21:15:17;15.30;99.90
55369;DHT22;41247;49.736;8.752;2023-07-13T21:18:59;15.20;99.90
55369;DHT22;41247;49.736;8.752;2023-07-13T21:22:39;15.20;99.90
55369;DHT22;41247;49.736;8.752;2023-07-13T21:26:20;15.20;99.90
55369;DHT22;41247;49.736;8.752;2023-07-13T21:30:01;15.10;99.90
55369;DHT22;41247;49.736;8.752;2023-07-13T21:33:41;15.10;99.90
55369;DHT22;41247;49.736;8.752;2023-07-13T21:37:22;15.10;99.90
55369;DHT22;41247;49.736;8.752;2023-07-13T21:41:16;15.10;99.90
55369;DHT22;41247;49.736;8.752;2023-07-13T21:45:01;15.00;99.90
55369;DHT22;41247;49.736;8.752;2023-07-13T21:48:41;15.00;99.90
55369;DHT22;41247;49.736;8.752;2023-07-13T21:52:22;15.00;99.90
55369;DHT22;41247;49.736;8.752;2023-07-13T21:56:02;15.00;99.90
55369;DHT22;41247;49.736;8.752;2023-07-13T21:59:43;15.00;99.90
55369;DHT22;41247;49.736;8.752;2023-07-13T22:03:26;14.90;99.90
55369;DHT22;41247;49.736;8.752;2023-07-13T22:07:12;14.90;99.90
55369;DHT22;41247;49.736;8.752;2023-07-13T22:10:53;14.90;99.90
55369;DHT22;41247;49.736;8.752;2023-07-13T22:14:34;14.90;99.90
55369;DHT22;41247;49.736;8.752;2023-07-13T22:18:18;14.80;99.90
55369;DHT22;41247;49.736;8.752;2023-07-13T22:22:00;14.80;99.90
55369;DHT22;41247;49.736;8.752;2023-07-13T22:25:40;14.80;99.90
55369;DHT22;41247;49.736;8.752;2023-07-13T22:29:24;14.80;99.90
55369;DHT22;41247;49.736;8.752;2023-07-13T22:33:14;14.80;99.90
55369;DHT22;41247;49.736;8.752;2023-07-13T22:36:56;14.80;99.90
55369;DHT22;41247;49.736;8.752;2023-07-13T22:40:37;14.70;99.90
55369;DHT22;41247;49.736;8.752;2023-07-13T22:44:20;14.70;99.90
55369;DHT22;41247;49.736;8.752;2023-07-13T22:48:01;14.80;99.90
55369;DHT22;41247;49.736;8.752;2023-07-13T22:51:41;14.70;99.90
55369;DHT22;41247;49.736;8.752;2023-07-13T22:55:22;14.70;99.90
55369;DHT22;41247;49.736;8.752;2023-07-13T22:59:03;14.80;99.90
55369;DHT22;41247;49.736;8.752;2023-07-13T23:02:44;14.80;99.90
55369;DHT22;41247;49.736;8.752;2023-07-13T23:06:34;14.90;99.90
55369;DHT22;41247;49.736;8.752;2023-07-13T23:10:17;15.00;99.90
55369;DHT22;41247;49.736;8.752;2023-07-13T23:13:58;15.00;99.90
55369;DHT22;41247;49.736;8.752;2023-07-13T23:17:39;15.10;99.90
55369;DHT22;41247;49.736;8.752;2023-07-13T23:21:21;15.20;99.90
55369;DHT22;41247;49.736;8.752;2023-07-13T23:25:11;15.30;99.90
55369;DHT22;41247;49.736;8.752;2023-07-13T23:28:53;15.40;99.90
55369;DHT22;41247;49.736;8.752;2023-07-13T23:32:34;15.40;99.90
55369;DHT22;41247;49.736;8.752;2023-07-13T23:36:16;15.40;99.90
55369;DHT22;41247;49.736;8.752;2023-07-13T23:39:58;15.50;99.90
55369;DHT22;41247;49.736;8.752;2023-07-13T23:43:39;15.60;99.90
55369;DHT22;41247;49.736;8.752;2023-07-13T23:47:19;15.60;99.90
55369;DHT22;41247;49.736;8.752;2023-07-13T23:51:00;15.70;99.90
55369;DHT22;41247;49.736;8.752;2023-07-13T23:54:41;15.70;99.90
55369;DHT22;41247;49.736;8.752;2023-07-13T23:58:21;15.70;99.90
